createdAt,value
2022-09-11T00:00:00.219Z,1019.53
2022-09-11T00:01:01.100Z,1019.51
2022-09-11T00:02:02.053Z,1019.50
2022-09-11T00:03:02.991Z,1019.51
2022-09-11T00:04:03.811Z,1019.52
2022-09-11T00:05:04.690Z,1019.53
2022-09-11T00:06:05.572Z,1019.56
2022-09-11T00:07:06.464Z,1019.56
2022-09-11T00:08:07.346Z,1019.57
2022-09-11T00:09:08.228Z,1019.56
2022-09-11T00:10:09.109Z,1019.55
2022-09-11T00:11:10.002Z,1019.53
2022-09-11T00:12:10.874Z,1019.51
2022-09-11T00:13:11.756Z,1019.52
2022-09-11T00:14:12.636Z,1019.52
2022-09-11T00:15:13.517Z,1019.52
2022-09-11T00:16:14.476Z,1019.51
2022-09-11T00:17:15.292Z,1019.49
2022-09-11T00:18:16.185Z,1019.53
2022-09-11T00:19:17.045Z,1019.52
2022-09-11T00:20:17.939Z,1019.51
2022-09-11T00:21:18.829Z,1019.49
2022-09-11T00:22:19.711Z,1019.51
2022-09-11T00:23:20.599Z,1019.52
2022-09-11T00:24:21.485Z,1019.52
2022-09-11T00:25:22.366Z,1019.53
2022-09-11T00:26:23.260Z,1019.51
2022-09-11T00:27:24.143Z,1019.50
2022-09-11T00:28:25.027Z,1019.50
2022-09-11T00:29:25.907Z,1019.50
2022-09-11T00:30:26.789Z,1019.49
2022-09-11T00:31:27.699Z,1019.46
2022-09-11T00:32:28.563Z,1019.48
2022-09-11T00:33:29.464Z,1019.47
2022-09-11T00:34:30.326Z,1019.48
2022-09-11T00:35:31.207Z,1019.49
2022-09-11T00:36:32.100Z,1019.48
2022-09-11T00:37:32.982Z,1019.50
2022-09-11T00:38:33.864Z,1019.52
2022-09-11T00:39:34.857Z,1019.49
2022-09-11T00:40:35.689Z,1019.50
2022-09-11T00:41:36.748Z,1019.50
2022-09-11T00:42:37.131Z,1019.50
2022-09-11T00:43:38.092Z,1019.52
2022-09-11T00:44:38.926Z,1019.55
2022-09-11T00:45:39.859Z,1019.55
2022-09-11T00:46:40.722Z,1019.56
2022-09-11T00:47:41.603Z,1019.55
2022-09-11T00:48:42.509Z,1019.56
2022-09-11T00:49:43.369Z,1019.56
2022-09-11T00:50:44.254Z,1019.56
2022-09-11T00:51:45.146Z,1019.55
2022-09-11T00:52:48.142Z,1019.57
2022-09-11T00:53:47.785Z,1019.56
2022-09-11T00:54:47.668Z,1019.54
2022-09-11T00:55:48.550Z,1019.51
2022-09-11T00:56:49.444Z,1019.51
2022-09-11T00:57:50.324Z,1019.48
2022-09-11T00:58:51.208Z,1019.45
2022-09-11T00:59:52.089Z,1019.44
2022-09-11T01:00:52.990Z,1019.44
2022-09-11T01:01:53.911Z,1019.48
2022-09-11T01:02:54.746Z,1019.48
2022-09-11T01:03:55.647Z,1019.47
2022-09-11T01:04:56.500Z,1019.47
2022-09-11T01:05:57.383Z,1019.47
2022-09-11T01:06:58.286Z,1019.46
2022-09-11T01:07:59.196Z,1019.46
2022-09-11T01:09:00.071Z,1019.46
2022-09-11T01:10:00.950Z,1019.45
2022-09-11T01:11:01.826Z,1019.44
2022-09-11T01:12:02.718Z,1019.45
2022-09-11T01:13:03.592Z,1019.43
2022-09-11T01:14:04.476Z,1019.45
2022-09-11T01:15:05.348Z,1019.45
2022-09-11T01:16:06.284Z,1019.44
2022-09-11T01:17:07.129Z,1019.43
2022-09-11T01:18:08.011Z,1019.43
2022-09-11T01:19:08.915Z,1019.40
2022-09-11T01:20:09.775Z,1019.40
2022-09-11T01:21:10.658Z,1019.39
2022-09-11T01:22:11.550Z,1019.40
2022-09-11T01:23:12.422Z,1019.41
2022-09-11T01:24:13.305Z,1019.41
2022-09-11T01:25:14.178Z,1019.42
2022-09-11T01:26:15.059Z,1019.42
2022-09-11T01:27:15.955Z,1019.41
2022-09-11T01:28:16.833Z,1019.43
2022-09-11T01:29:17.717Z,1019.41
2022-09-11T01:30:18.618Z,1019.40
2022-09-11T01:31:19.501Z,1019.38
2022-09-11T01:32:20.373Z,1019.38
2022-09-11T01:33:21.257Z,1019.38
2022-09-11T01:34:22.165Z,1019.36
2022-09-11T01:35:23.023Z,1019.35
2022-09-11T01:36:23.904Z,1019.35
2022-09-11T01:37:24.796Z,1019.33
2022-09-11T01:38:25.678Z,1019.33
2022-09-11T01:39:26.561Z,1019.33
2022-09-11T01:40:27.442Z,1019.31
2022-09-11T01:41:28.325Z,1019.30
2022-09-11T01:42:29.241Z,1019.32
2022-09-11T01:43:30.123Z,1019.33
2022-09-11T01:44:31.006Z,1019.30
2022-09-11T01:45:31.923Z,1019.30
2022-09-11T01:46:32.770Z,1019.29
2022-09-11T01:47:33.651Z,1019.27
2022-09-11T01:48:34.533Z,1019.25
2022-09-11T01:49:35.424Z,1019.26
2022-09-11T01:50:36.285Z,1019.22
2022-09-11T01:51:37.168Z,1019.22
2022-09-11T01:52:38.063Z,1019.23
2022-09-11T01:53:39.045Z,1019.25
2022-09-11T01:54:39.877Z,1019.23
2022-09-11T01:55:40.758Z,1019.23
2022-09-11T01:56:41.643Z,1019.23
2022-09-11T01:57:42.532Z,1019.22
2022-09-11T01:58:43.412Z,1019.21
2022-09-11T01:59:44.299Z,1019.20
2022-09-11T02:00:45.199Z,1019.20
2022-09-11T02:01:46.116Z,1019.21
2022-09-11T02:02:46.954Z,1019.19
2022-09-11T02:03:47.834Z,1019.19
2022-09-11T02:04:48.737Z,1019.17
2022-09-11T02:05:49.597Z,1019.18
2022-09-11T02:06:50.470Z,1019.16
2022-09-11T02:07:51.361Z,1019.15
2022-09-11T02:08:52.234Z,1019.14
2022-09-11T02:09:53.115Z,1019.16
2022-09-11T02:10:53.988Z,1019.17
2022-09-11T02:11:54.869Z,1019.19
2022-09-11T02:12:55.763Z,1019.18
2022-09-11T02:13:56.642Z,1019.20
2022-09-11T02:14:57.526Z,1019.21
2022-09-11T02:15:58.457Z,1019.23
2022-09-11T02:16:59.290Z,1019.25
2022-09-11T02:18:00.180Z,1019.25
2022-09-11T02:19:01.067Z,1019.24
2022-09-11T02:20:01.963Z,1019.23
2022-09-11T02:21:02.826Z,1019.25
2022-09-11T02:22:03.719Z,1019.23
2022-09-11T02:23:04.601Z,1019.23
2022-09-11T02:24:05.485Z,1019.20
2022-09-11T02:25:06.369Z,1019.18
2022-09-11T02:26:07.251Z,1019.15
2022-09-11T02:27:08.130Z,1019.16
2022-09-11T02:28:09.025Z,1019.15
2022-09-11T02:29:09.904Z,1019.12
2022-09-11T02:30:10.786Z,1019.08
2022-09-11T02:31:11.722Z,1019.04
2022-09-11T02:32:12.564Z,1019.04
2022-09-11T02:33:13.456Z,1019.06
2022-09-11T02:34:14.339Z,1019.12
2022-09-11T02:35:15.239Z,1019.13
2022-09-11T02:36:16.105Z,1019.13
2022-09-11T02:37:16.988Z,1019.14
2022-09-11T02:38:17.881Z,1019.18
2022-09-11T02:39:18.762Z,1019.21
2022-09-11T02:40:19.634Z,1019.21
2022-09-11T02:41:20.519Z,1019.21
2022-09-11T02:42:21.404Z,1019.19
2022-09-11T02:43:22.291Z,1019.16
2022-09-11T02:44:23.176Z,1019.17
2022-09-11T02:45:24.100Z,1019.17
2022-09-11T02:46:24.938Z,1019.19
2022-09-11T02:47:25.821Z,1019.17
2022-09-11T02:48:26.713Z,1019.15
2022-09-11T02:49:27.596Z,1019.15
2022-09-11T02:50:28.497Z,1019.12
2022-09-11T02:51:29.362Z,1019.10
2022-09-11T02:52:30.246Z,1019.10
2022-09-11T02:53:31.136Z,1019.13
2022-09-11T02:54:32.017Z,1019.10
2022-09-11T02:55:32.905Z,1019.11
2022-09-11T02:56:33.785Z,1019.08
2022-09-11T02:57:34.659Z,1019.04
2022-09-11T02:58:35.547Z,1019.01
2022-09-11T02:59:36.429Z,1019.05
2022-09-11T03:00:37.332Z,1019.06
2022-09-11T03:01:38.270Z,1019.06
2022-09-11T03:02:39.114Z,1019.06
2022-09-11T03:03:40.067Z,1019.05
2022-09-11T03:04:40.941Z,1019.05
2022-09-11T03:05:41.840Z,1019.06
2022-09-11T03:06:42.704Z,1019.06
2022-09-11T03:07:43.588Z,1019.07
2022-09-11T03:08:44.480Z,1019.06
2022-09-11T03:09:45.359Z,1019.04
2022-09-11T03:10:46.240Z,1019.03
2022-09-11T03:11:47.126Z,1019.06
2022-09-11T03:12:48.016Z,1019.05
2022-09-11T03:13:48.890Z,1019.02
2022-09-11T03:14:49.771Z,1019.05
2022-09-11T03:15:50.653Z,1019.03
2022-09-11T03:16:51.535Z,1019.06
2022-09-11T03:17:52.440Z,1019.07
2022-09-11T03:18:53.316Z,1019.06
2022-09-11T03:19:54.191Z,1019.06
2022-09-11T03:20:55.092Z,1019.05
2022-09-11T03:21:55.948Z,1019.05
2022-09-11T03:22:56.838Z,1019.09
2022-09-11T03:23:57.720Z,1019.05
2022-09-11T03:24:58.601Z,1019.04
2022-09-11T03:25:59.484Z,1019.02
2022-09-11T03:27:00.367Z,1019.02
2022-09-11T03:28:01.259Z,1019.02
2022-09-11T03:29:02.142Z,1019.01
2022-09-11T03:30:03.031Z,1018.99
2022-09-11T03:31:03.908Z,1019.00
2022-09-11T03:32:04.789Z,1018.97
2022-09-11T03:33:05.682Z,1019.01
2022-09-11T03:34:06.566Z,1019.00
2022-09-11T03:35:07.450Z,1019.02
2022-09-11T03:36:08.353Z,1018.98
2022-09-11T03:37:09.214Z,1018.96
2022-09-11T03:38:10.106Z,1018.98
2022-09-11T03:39:10.990Z,1019.00
2022-09-11T03:40:11.958Z,1019.06
2022-09-11T03:41:12.796Z,1019.04
2022-09-11T03:42:13.680Z,1019.02
2022-09-11T03:43:14.569Z,1019.02
2022-09-11T03:44:15.454Z,1019.01
2022-09-11T03:45:16.335Z,1019.02
2022-09-11T03:46:17.220Z,1018.98
2022-09-11T03:47:18.103Z,1018.98
2022-09-11T03:48:18.995Z,1018.93
2022-09-11T03:49:19.873Z,1018.95
2022-09-11T03:50:20.747Z,1018.98
2022-09-11T03:51:21.647Z,1018.96
2022-09-11T03:52:22.513Z,1018.95
2022-09-11T03:53:23.405Z,1018.93
2022-09-11T03:54:24.282Z,1018.93
2022-09-11T03:55:25.163Z,1018.93
2022-09-11T03:56:26.047Z,1018.92
2022-09-11T03:57:26.932Z,1018.93
2022-09-11T03:58:27.813Z,1018.94
2022-09-11T03:59:28.691Z,1018.92
2022-09-11T04:00:29.576Z,1018.93
2022-09-11T04:01:30.457Z,1018.96
2022-09-11T04:02:31.331Z,1018.96
2022-09-11T04:03:32.220Z,1018.96
2022-09-11T04:04:33.107Z,1018.96
2022-09-11T04:05:33.985Z,1018.98
2022-09-11T04:06:34.890Z,1019.01
2022-09-11T04:07:35.751Z,1019.00
2022-09-11T04:08:36.643Z,1019.00
2022-09-11T04:09:37.526Z,1019.01
2022-09-11T04:10:38.413Z,1019.02
2022-09-11T04:11:39.294Z,1019.04
2022-09-11T04:12:40.174Z,1019.07
2022-09-11T04:13:41.171Z,1019.12
2022-09-11T04:14:41.551Z,1019.12
2022-09-11T04:15:42.427Z,1019.12
2022-09-11T04:16:43.404Z,1019.13
2022-09-11T04:17:43.813Z,1019.14
2022-09-11T04:18:44.696Z,1019.17
2022-09-11T04:19:45.580Z,1019.16
2022-09-11T04:20:46.460Z,1019.18
2022-09-11T04:21:47.366Z,1019.17
2022-09-11T04:22:48.236Z,1019.18
2022-09-11T04:23:49.115Z,1019.17
2022-09-11T04:24:50.000Z,1019.22
2022-09-11T04:25:50.880Z,1019.23
2022-09-11T04:26:51.763Z,1019.25
2022-09-11T04:27:52.654Z,1019.25
2022-09-11T04:28:53.535Z,1019.28
2022-09-11T04:29:54.417Z,1019.28
2022-09-11T04:30:55.303Z,1019.27
2022-09-11T04:31:56.315Z,1019.26
2022-09-11T04:32:57.165Z,1019.22
2022-09-11T04:33:58.341Z,1019.23
2022-09-11T04:34:58.693Z,1019.22
2022-09-11T04:35:59.579Z,1019.22
2022-09-11T04:37:00.479Z,1019.23
2022-09-11T04:38:01.353Z,1019.20
2022-09-11T04:39:02.180Z,1019.22
2022-09-11T04:40:03.140Z,1019.19
2022-09-11T04:41:03.995Z,1019.18
2022-09-11T04:42:04.885Z,1019.15
2022-09-11T04:43:05.769Z,1019.12
2022-09-11T04:44:06.613Z,1019.13
2022-09-11T04:45:07.437Z,1019.13
2022-09-11T04:46:08.321Z,1019.14
2022-09-11T04:47:09.211Z,1019.14
2022-09-11T04:48:10.094Z,1019.16
2022-09-11T04:49:10.938Z,1019.18
2022-09-11T04:50:11.764Z,1019.20
2022-09-11T04:51:12.647Z,1019.21
2022-09-11T04:52:13.520Z,1019.22
2022-09-11T04:53:14.380Z,1019.23
2022-09-11T04:54:15.221Z,1019.24
2022-09-11T04:55:16.052Z,1019.24
2022-09-11T04:56:16.884Z,1019.22
2022-09-11T04:57:17.734Z,1019.22
2022-09-11T04:58:18.558Z,1019.22
2022-09-11T04:59:19.386Z,1019.24
2022-09-11T05:00:20.216Z,1019.27
2022-09-11T05:01:21.073Z,1019.27
2022-09-11T05:02:21.973Z,1019.25
2022-09-11T05:03:22.763Z,1019.27
2022-09-11T05:04:26.252Z,1019.28
2022-09-11T05:05:24.231Z,1019.27
2022-09-11T05:06:25.070Z,1019.24
2022-09-11T05:07:25.917Z,1019.24
2022-09-11T05:08:26.727Z,1019.25
2022-09-11T05:09:27.560Z,1019.28
2022-09-11T05:10:28.389Z,1019.30
2022-09-11T05:11:29.218Z,1019.30
2022-09-11T05:12:30.075Z,1019.29
2022-09-11T05:13:34.344Z,1019.30
2022-09-11T05:14:32.605Z,1019.32
2022-09-11T05:15:32.438Z,1019.30
2022-09-11T05:16:33.331Z,1019.31
2022-09-11T05:17:34.118Z,1019.30
2022-09-11T05:18:34.946Z,1019.29
2022-09-11T05:19:35.781Z,1019.29
2022-09-11T05:20:36.602Z,1019.29
2022-09-11T05:21:37.433Z,1019.29
2022-09-11T05:22:38.292Z,1019.27
2022-09-11T05:23:39.186Z,1019.28
2022-09-11T05:24:39.971Z,1019.29
2022-09-11T05:25:40.801Z,1019.30
2022-09-11T05:26:41.628Z,1019.32
2022-09-11T05:27:42.466Z,1019.33
2022-09-11T05:28:43.294Z,1019.35
2022-09-11T05:29:44.129Z,1019.36
2022-09-11T05:30:44.951Z,1019.36
2022-09-11T05:31:45.852Z,1019.35
2022-09-11T05:32:46.669Z,1019.36
2022-09-11T05:33:47.496Z,1019.36
2022-09-11T05:34:48.325Z,1019.36
2022-09-11T05:35:49.154Z,1019.37
2022-09-11T05:36:49.981Z,1019.37
2022-09-11T05:37:50.841Z,1019.40
2022-09-11T05:38:51.650Z,1019.39
2022-09-11T05:39:52.549Z,1019.38
2022-09-11T05:40:53.316Z,1019.36
2022-09-11T05:41:54.147Z,1019.36
2022-09-11T05:42:54.987Z,1019.36
2022-09-11T05:43:55.817Z,1019.36
2022-09-11T05:44:56.646Z,1019.36
2022-09-11T05:45:57.546Z,1019.40
2022-09-11T05:46:58.306Z,1019.42
2022-09-11T05:47:59.132Z,1019.46
2022-09-11T05:48:59.978Z,1019.47
2022-09-11T05:50:00.794Z,1019.49
2022-09-11T05:51:01.626Z,1019.50
2022-09-11T05:52:02.451Z,1019.52
2022-09-11T05:53:03.306Z,1019.55
2022-09-11T05:54:04.118Z,1019.56
2022-09-11T05:55:05.014Z,1019.55
2022-09-11T05:56:05.799Z,1019.55
2022-09-11T05:57:07.917Z,1019.54
2022-09-11T05:58:07.379Z,1019.56
2022-09-11T05:59:08.204Z,1019.54
2022-09-11T06:00:09.067Z,1019.50
2022-09-11T06:01:09.939Z,1019.47
2022-09-11T06:02:10.778Z,1019.49
2022-09-11T06:03:15.385Z,1019.47
2022-09-11T06:04:12.432Z,1019.47
2022-09-11T06:05:13.253Z,1019.48
2022-09-11T06:06:14.115Z,1019.47
2022-09-11T06:07:14.933Z,1019.49
2022-09-11T06:08:15.786Z,1019.49
2022-09-11T06:09:16.593Z,1019.49
2022-09-11T06:10:17.418Z,1019.53
2022-09-11T06:11:18.246Z,1019.55
2022-09-11T06:12:19.100Z,1019.56
2022-09-11T06:13:19.910Z,1019.60
2022-09-11T06:14:20.740Z,1019.60
2022-09-11T06:15:45.246Z,1019.60
2022-09-11T06:16:23.388Z,1019.63
2022-09-11T06:17:23.177Z,1019.69
2022-09-11T06:18:24.037Z,1019.72
2022-09-11T06:19:24.854Z,1019.75
2022-09-11T06:20:25.679Z,1019.75
2022-09-11T06:21:26.515Z,1019.78
2022-09-11T06:22:27.339Z,1019.79
2022-09-11T06:23:28.207Z,1019.79
2022-09-11T06:24:29.015Z,1019.80
2022-09-11T06:25:29.848Z,1019.82
2022-09-11T06:26:30.667Z,1019.83
2022-09-11T06:27:31.497Z,1019.85
2022-09-11T06:28:32.375Z,1019.88
2022-09-11T06:29:33.175Z,1019.87
2022-09-11T06:30:34.062Z,1019.87
2022-09-11T06:31:34.863Z,1019.88
2022-09-11T06:32:35.688Z,1019.87
2022-09-11T06:33:36.543Z,1019.91
2022-09-11T06:34:37.357Z,1019.93
2022-09-11T06:35:38.183Z,1019.93
2022-09-11T06:36:39.006Z,1019.94
2022-09-11T06:37:39.837Z,1019.91
2022-09-11T06:38:40.715Z,1019.89
2022-09-11T06:39:41.588Z,1019.88
2022-09-11T06:40:42.382Z,1019.88
2022-09-11T06:41:43.215Z,1019.85
2022-09-11T06:42:44.064Z,1019.87
2022-09-11T06:43:45.023Z,1019.88
2022-09-11T06:44:50.528Z,1019.87
2022-09-11T06:45:46.597Z,1019.89
2022-09-11T06:46:47.399Z,1019.91
2022-09-11T06:47:48.216Z,1019.93
2022-09-11T06:48:49.055Z,1019.99
2022-09-11T06:49:49.885Z,1020.04
2022-09-11T06:50:50.711Z,1020.09
2022-09-11T06:51:51.531Z,1020.12
2022-09-11T06:52:52.383Z,1020.12
2022-09-11T06:53:53.220Z,1020.13
2022-09-11T06:54:54.031Z,1020.17
2022-09-11T06:55:54.862Z,1020.19
2022-09-11T06:56:55.688Z,1020.22
2022-09-11T06:57:56.518Z,1020.22
2022-09-11T06:58:57.360Z,1020.21
2022-09-11T06:59:58.187Z,1020.20
2022-09-11T07:00:59.098Z,1020.20
2022-09-11T07:02:00.050Z,1020.16
2022-09-11T07:03:00.887Z,1020.14
2022-09-11T07:04:01.731Z,1020.15
2022-09-11T07:05:02.555Z,1020.17
2022-09-11T07:06:03.437Z,1020.16
2022-09-11T07:07:04.233Z,1020.20
2022-09-11T07:08:05.066Z,1020.21
2022-09-11T07:09:05.929Z,1020.21
2022-09-11T07:10:06.736Z,1020.24
2022-09-11T07:11:07.572Z,1020.25
2022-09-11T07:12:08.398Z,1020.29
2022-09-11T07:13:09.226Z,1020.34
2022-09-11T07:14:10.065Z,1020.39
2022-09-11T07:15:10.891Z,1020.44
2022-09-11T07:16:11.742Z,1020.45
2022-09-11T07:17:12.571Z,1020.47
2022-09-11T07:18:13.398Z,1020.50
2022-09-11T07:19:14.225Z,1020.53
2022-09-11T07:20:15.054Z,1020.52
2022-09-11T07:21:15.891Z,1020.50
2022-09-11T07:22:16.717Z,1020.48
2022-09-11T07:23:17.539Z,1020.46
2022-09-11T07:24:18.401Z,1020.46
2022-09-11T07:25:19.211Z,1020.45
2022-09-11T07:26:20.076Z,1020.45
2022-09-11T07:27:20.887Z,1020.39
2022-09-11T07:28:21.727Z,1020.37
2022-09-11T07:29:22.557Z,1020.39
2022-09-11T07:30:23.389Z,1020.37
2022-09-11T07:31:24.220Z,1020.35
2022-09-11T07:32:25.046Z,1020.39
2022-09-11T07:33:25.877Z,1020.41
2022-09-11T07:34:26.712Z,1020.36
2022-09-11T07:35:27.539Z,1020.33
2022-09-11T07:36:28.404Z,1020.35
2022-09-11T07:37:29.199Z,1020.37
2022-09-11T07:38:30.021Z,1020.40
2022-09-11T07:39:30.874Z,1020.42
2022-09-11T07:40:31.685Z,1020.39
2022-09-11T07:41:32.516Z,1020.39
2022-09-11T07:42:33.353Z,1020.39
2022-09-11T07:43:34.162Z,1020.42
2022-09-11T07:44:35.005Z,1020.44
2022-09-11T07:45:35.881Z,1020.48
2022-09-11T07:46:36.665Z,1020.49
2022-09-11T07:47:37.491Z,1020.51
2022-09-11T07:48:38.348Z,1020.53
2022-09-11T07:49:39.176Z,1020.54
2022-09-11T07:50:39.998Z,1020.54
2022-09-11T07:51:40.829Z,1020.57
2022-09-11T07:52:41.991Z,1020.60
2022-09-11T07:53:42.496Z,1020.60
2022-09-11T07:54:42.933Z,1020.61
2022-09-11T07:55:43.787Z,1020.59
2022-09-11T07:56:44.612Z,1020.58
2022-09-11T07:57:45.430Z,1020.60
2022-09-11T07:58:46.313Z,1020.61
2022-09-11T07:59:47.116Z,1020.60
2022-09-11T08:00:47.989Z,1020.62
2022-09-11T08:01:48.773Z,1020.67
2022-09-11T08:02:49.613Z,1020.72
2022-09-11T08:03:50.437Z,1020.74
2022-09-11T08:04:51.273Z,1020.79
2022-09-11T08:05:52.097Z,1020.79
2022-09-11T08:06:52.927Z,1020.82
2022-09-11T08:07:53.757Z,1020.82
2022-09-11T08:08:54.634Z,1020.79
2022-09-11T08:10:10.394Z,1020.77
2022-09-11T08:10:57.158Z,1020.78
2022-09-11T08:11:57.013Z,1020.78
2022-09-11T08:12:59.862Z,1020.80
2022-09-11T08:13:58.523Z,1020.80
2022-09-11T08:14:59.356Z,1020.80
2022-09-11T08:16:00.183Z,1020.79
2022-09-11T08:17:01.029Z,1020.78
2022-09-11T08:18:01.856Z,1020.80
2022-09-11T08:19:02.675Z,1020.85
2022-09-11T08:20:03.534Z,1020.86
2022-09-11T08:21:04.361Z,1020.86
2022-09-11T08:22:05.189Z,1020.90
2022-09-11T08:23:06.024Z,1020.89
2022-09-11T08:24:06.890Z,1020.89
2022-09-11T08:25:07.707Z,1020.88
2022-09-11T08:26:08.522Z,1020.86
2022-09-11T08:27:09.346Z,1020.87
2022-09-11T08:28:10.179Z,1020.84
2022-09-11T08:29:10.996Z,1020.83
2022-09-11T08:30:11.878Z,1020.82
2022-09-11T08:31:12.695Z,1020.85
2022-09-11T08:32:13.491Z,1020.87
2022-09-11T08:33:14.315Z,1020.90
2022-09-11T08:34:15.144Z,1020.92
2022-09-11T08:35:15.992Z,1020.97
2022-09-11T08:36:16.813Z,1021.00
2022-09-11T08:37:17.643Z,1021.06
2022-09-11T08:38:18.480Z,1021.03
2022-09-11T08:39:19.308Z,1021.04
2022-09-11T08:40:20.169Z,1021.06
2022-09-11T08:41:20.981Z,1021.11
2022-09-11T08:42:21.808Z,1021.09
2022-09-11T08:43:22.640Z,1021.10
2022-09-11T08:44:23.496Z,1021.10
2022-09-11T08:45:24.299Z,1021.10
2022-09-11T08:46:25.134Z,1021.09
2022-09-11T08:47:25.972Z,1021.10
2022-09-11T08:48:26.790Z,1021.08
2022-09-11T08:49:27.625Z,1021.06
2022-09-11T08:50:28.450Z,1021.05
2022-09-11T08:51:29.282Z,1021.07
2022-09-11T08:52:30.123Z,1021.10
2022-09-11T08:53:30.951Z,1021.12
2022-09-11T08:54:31.770Z,1021.19
2022-09-11T08:55:32.617Z,1021.26
2022-09-11T08:56:33.428Z,1021.28
2022-09-11T08:57:34.246Z,1021.26
2022-09-11T08:58:35.083Z,1021.25
2022-09-11T08:59:35.902Z,1021.21
2022-09-11T09:00:36.741Z,1021.19
2022-09-11T09:01:37.711Z,1021.17
2022-09-11T09:02:38.544Z,1021.21
2022-09-11T09:03:39.494Z,1021.20
2022-09-11T09:04:40.277Z,1021.23
2022-09-11T09:05:41.113Z,1021.23
2022-09-11T09:06:41.956Z,1021.25
2022-09-11T09:07:42.774Z,1021.22
2022-09-11T09:08:43.616Z,1021.22
2022-09-11T09:09:44.432Z,1021.28
2022-09-11T09:10:45.290Z,1021.32
2022-09-11T09:11:46.112Z,1021.35
2022-09-11T09:12:46.927Z,1021.33
2022-09-11T09:13:47.757Z,1021.34
2022-09-11T09:14:48.593Z,1021.35
2022-09-11T09:15:49.492Z,1021.37
2022-09-11T09:16:50.290Z,1021.41
2022-09-11T09:17:51.115Z,1021.46
2022-09-11T09:18:51.944Z,1021.45
2022-09-11T09:19:52.773Z,1021.45
2022-09-11T09:20:53.626Z,1021.45
2022-09-11T09:21:54.460Z,1021.43
2022-09-11T09:22:55.295Z,1021.43
2022-09-11T09:23:56.136Z,1021.42
2022-09-11T09:24:56.952Z,1021.41
2022-09-11T09:25:57.821Z,1021.41
2022-09-11T09:26:58.618Z,1021.42
2022-09-11T09:27:59.445Z,1021.41
2022-09-11T09:29:00.268Z,1021.40
2022-09-11T09:30:01.181Z,1021.41
2022-09-11T09:31:02.097Z,1021.40
2022-09-11T09:32:02.888Z,1021.39
2022-09-11T09:33:03.729Z,1021.37
2022-09-11T09:34:04.550Z,1021.38
2022-09-11T09:35:05.378Z,1021.38
2022-09-11T09:36:06.217Z,1021.36
2022-09-11T09:37:07.036Z,1021.35
2022-09-11T09:38:07.866Z,1021.36
2022-09-11T09:39:08.685Z,1021.36
2022-09-11T09:40:09.636Z,1021.33
2022-09-11T09:41:10.433Z,1021.32
2022-09-11T09:42:11.276Z,1021.32
2022-09-11T09:43:12.104Z,1021.33
2022-09-11T09:44:16.495Z,1021.35
2022-09-11T09:45:14.647Z,1021.35
2022-09-11T09:46:14.501Z,1021.34
2022-09-11T09:47:15.302Z,1021.33
2022-09-11T09:48:16.133Z,1021.32
2022-09-11T09:49:16.987Z,1021.35
2022-09-11T09:50:17.800Z,1021.37
2022-09-11T09:51:18.646Z,1021.39
2022-09-11T09:52:19.461Z,1021.39
2022-09-11T09:53:20.288Z,1021.40
2022-09-11T09:54:21.108Z,1021.42
2022-09-11T09:55:21.935Z,1021.42
2022-09-11T09:56:22.792Z,1021.43
2022-09-11T09:57:23.628Z,1021.41
2022-09-11T09:58:24.430Z,1021.41
2022-09-11T09:59:25.257Z,1021.40
2022-09-11T10:00:26.077Z,1021.38
2022-09-11T10:01:26.960Z,1021.38
2022-09-11T10:02:27.753Z,1021.39
2022-09-11T10:03:28.600Z,1021.41
2022-09-11T10:04:29.407Z,1021.42
2022-09-11T10:05:30.233Z,1021.45
2022-09-11T10:06:31.073Z,1021.45
2022-09-11T10:07:31.900Z,1021.47
2022-09-11T10:08:32.734Z,1021.46
2022-09-11T10:09:33.564Z,1021.45
2022-09-11T10:10:34.396Z,1021.45
2022-09-11T10:11:35.246Z,1021.45
2022-09-11T10:12:36.057Z,1021.45
2022-09-11T10:13:36.883Z,1021.45
2022-09-11T10:14:52.772Z,1021.46
2022-09-11T10:15:39.444Z,1021.46
2022-09-11T10:16:39.256Z,1021.46
2022-09-11T10:17:40.084Z,1021.45
2022-09-11T10:18:40.984Z,1021.43
2022-09-11T10:19:41.786Z,1021.44
2022-09-11T10:20:42.620Z,1021.46
2022-09-11T10:21:43.461Z,1021.45
2022-09-11T10:22:44.284Z,1021.41
2022-09-11T10:23:45.113Z,1021.36
2022-09-11T10:24:45.951Z,1021.32
2022-09-11T10:25:46.781Z,1021.30
2022-09-11T10:26:47.632Z,1021.31
2022-09-11T10:27:48.440Z,1021.32
2022-09-11T10:28:49.262Z,1021.34
2022-09-11T10:29:50.103Z,1021.35
2022-09-11T10:30:50.967Z,1021.34
2022-09-11T10:31:51.762Z,1021.33
2022-09-11T10:32:52.590Z,1021.31
2022-09-11T10:33:53.420Z,1021.32
2022-09-11T10:34:54.256Z,1021.32
2022-09-11T10:35:55.092Z,1021.31
2022-09-11T10:36:55.915Z,1021.33
2022-09-11T10:37:56.744Z,1021.34
2022-09-11T10:38:57.572Z,1021.35
2022-09-11T10:39:58.458Z,1021.33
2022-09-11T10:40:59.297Z,1021.29
2022-09-11T10:42:00.120Z,1021.28
2022-09-11T10:43:00.926Z,1021.31
2022-09-11T10:44:01.766Z,1021.32
2022-09-11T10:45:02.585Z,1021.34
2022-09-11T10:46:03.460Z,1021.33
2022-09-11T10:47:04.271Z,1021.35
2022-09-11T10:48:05.093Z,1021.39
2022-09-11T10:49:05.918Z,1021.39
2022-09-11T10:50:06.740Z,1021.37
2022-09-11T10:51:07.585Z,1021.39
2022-09-11T10:52:08.401Z,1021.40
2022-09-11T10:53:09.227Z,1021.40
2022-09-11T10:54:10.057Z,1021.40
2022-09-11T10:55:10.877Z,1021.38
2022-09-11T10:56:11.704Z,1021.36
2022-09-11T10:57:12.552Z,1021.37
2022-09-11T10:58:13.352Z,1021.39
2022-09-11T10:59:14.180Z,1021.40
2022-09-11T11:00:15.048Z,1021.41
2022-09-11T11:01:15.897Z,1021.41
2022-09-11T11:02:16.744Z,1021.42
2022-09-11T11:03:17.528Z,1021.42
2022-09-11T11:04:18.355Z,1021.43
2022-09-11T11:05:19.183Z,1021.43
2022-09-11T11:06:20.029Z,1021.40
2022-09-11T11:07:20.856Z,1021.39
2022-09-11T11:08:21.681Z,1021.39
2022-09-11T11:09:22.508Z,1021.39
2022-09-11T11:10:23.337Z,1021.39
2022-09-11T11:11:24.197Z,1021.42
2022-09-11T11:12:25.044Z,1021.44
2022-09-11T11:13:25.865Z,1021.45
2022-09-11T11:14:26.679Z,1021.43
2022-09-11T11:15:30.261Z,1021.41
2022-09-11T11:16:28.136Z,1021.41
2022-09-11T11:17:28.964Z,1021.36
2022-09-11T11:18:29.794Z,1021.39
2022-09-11T11:19:30.634Z,1021.39
2022-09-11T11:20:31.464Z,1021.41
2022-09-11T11:21:32.305Z,1021.40
2022-09-11T11:22:33.123Z,1021.39
2022-09-11T11:23:33.951Z,1021.39
2022-09-11T11:24:34.780Z,1021.40
2022-09-11T11:25:35.618Z,1021.36
2022-09-11T11:26:36.450Z,1021.36
2022-09-11T11:27:37.328Z,1021.38
2022-09-11T11:28:38.124Z,1021.35
2022-09-11T11:29:38.963Z,1021.38
2022-09-11T11:30:39.785Z,1021.38
2022-09-11T11:31:44.223Z,1021.37
2022-09-11T11:32:41.243Z,1021.38
2022-09-11T11:33:42.072Z,1021.39
2022-09-11T11:34:42.898Z,1021.40
2022-09-11T11:35:43.751Z,1021.40
2022-09-11T11:36:44.590Z,1021.45
2022-09-11T11:37:45.419Z,1021.47
2022-09-11T11:38:46.246Z,1021.46
2022-09-11T11:39:47.110Z,1021.45
2022-09-11T11:40:47.912Z,1021.48
2022-09-11T11:41:48.776Z,1021.51
2022-09-11T11:42:53.971Z,1021.48
2022-09-11T11:43:51.292Z,1021.47
2022-09-11T11:44:51.157Z,1021.48
2022-09-11T11:45:52.017Z,1021.47
2022-09-11T11:46:52.854Z,1021.41
2022-09-11T11:47:53.684Z,1021.39
2022-09-11T11:48:54.514Z,1021.39
2022-09-11T11:49:55.348Z,1021.38
2022-09-11T11:50:56.201Z,1021.38
2022-09-11T11:51:57.010Z,1021.39
2022-09-11T11:52:57.853Z,1021.38
2022-09-11T11:53:58.664Z,1021.38
2022-09-11T11:54:59.500Z,1021.37
2022-09-11T11:56:00.322Z,1021.37
2022-09-11T11:57:01.159Z,1021.37
2022-09-11T11:58:02.022Z,1021.38
2022-09-11T11:59:02.820Z,1021.39
2022-09-11T12:00:03.648Z,1021.38
2022-09-11T12:01:04.482Z,1021.41
2022-09-11T12:02:05.402Z,1021.44
2022-09-11T12:03:06.199Z,1021.41
2022-09-11T12:04:07.048Z,1021.41
2022-09-11T12:05:07.855Z,1021.42
2022-09-11T12:06:08.692Z,1021.40
2022-09-11T12:07:09.547Z,1021.41
2022-09-11T12:08:10.363Z,1021.41
2022-09-11T12:09:11.183Z,1021.38
2022-09-11T12:10:12.065Z,1021.33
2022-09-11T12:11:12.880Z,1021.31
2022-09-11T12:12:13.782Z,1021.33
2022-09-11T12:13:14.598Z,1021.34
2022-09-11T12:14:15.407Z,1021.32
2022-09-11T12:15:16.238Z,1021.32